sensor_id;sensor_type;location;lat;lon;timestamp;pressure;altitude;pressure_sealevel;temperature;humidity
10202;BME280;5143;42.584;23.164;2023-04-25T00:02:24;91855.72;;;9.47;100.00
10202;BME280;5143;42.584;23.164;2023-04-25T00:04:51;91839.09;;;9.39;100.00
10202;BME280;5143;42.584;23.164;2023-04-25T00:07:19;91833.16;;;9.41;100.00
10202;BME280;5143;42.584;23.164;2023-04-25T00:09:46;91817.31;;;9.28;100.00
10202;BME280;5143;42.584;23.164;2023-04-25T00:12:12;91826.19;;;9.23;100.00
10202;BME280;5143;42.584;23.164;2023-04-25T00:14:40;91815.53;;;9.20;100.00
10202;BME280;5143;42.584;23.164;2023-04-25T00:17:07;91811.81;;;9.12;100.00
10202;BME280;5143;42.584;23.164;2023-04-25T00:19:33;91799.19;;;9.09;100.00
10202;BME280;5143;42.584;23.164;2023-04-25T00:22:00;91803.34;;;9.04;100.00
10202;BME280;5143;42.584;23.164;2023-04-25T00:24:28;91795.91;;;8.99;100.00
10202;BME280;5143;42.584;23.164;2023-04-25T00:26:55;91804.59;;;8.98;100.00
10202;BME280;5143;42.584;23.164;2023-04-25T00:29:22;91804.59;;;8.98;100.00
10202;BME280;5143;42.584;23.164;2023-04-25T00:31:48;91802.38;;;9.02;100.00
10202;BME280;5143;42.584;23.164;2023-04-25T00:34:15;91811.31;;;9.13;100.00
10202;BME280;5143;42.584;23.164;2023-04-25T00:36:42;91806.09;;;9.10;100.00
10202;BME280;5143;42.584;23.164;2023-04-25T00:39:08;91810.81;;;9.15;100.00
10202;BME280;5143;42.584;23.164;2023-04-25T00:41:37;91816.25;;;9.20;100.00
10202;BME280;5143;42.584;23.164;2023-04-25T00:44:04;91809.34;;;9.19;100.00
10202;BME280;5143;42.584;23.164;2023-04-25T00:46:32;91802.91;;;9.22;100.00
10202;BME280;5143;42.584;23.164;2023-04-25T00:48:59;91804.66;;;9.20;100.00
10202;BME280;5143;42.584;23.164;2023-04-25T00:51:26;91799.69;;;9.24;100.00
10202;BME280;5143;42.584;23.164;2023-04-25T00:53:53;91787.06;;;9.21;100.00
10202;BME280;5143;42.584;23.164;2023-04-25T00:56:20;91770.25;;;9.22;100.00
10202;BME280;5143;42.584;23.164;2023-04-25T00:58:49;91768.00;;;9.21;100.00
10202;BME280;5143;42.584;23.164;2023-04-25T01:01:16;91753.63;;;9.20;100.00
10202;BME280;5143;42.584;23.164;2023-04-25T01:03:45;91751.94;;;9.23;100.00
10202;BME280;5143;42.584;23.164;2023-04-25T01:06:12;91757.38;;;9.23;100.00
10202;BME280;5143;42.584;23.164;2023-04-25T01:08:39;91757.63;;;9.25;100.00
10202;BME280;5143;42.584;23.164;2023-04-25T01:11:06;91758.84;;;9.18;100.00
10202;BME280;5143;42.584;23.164;2023-04-25T01:13:33;91766.53;;;9.20;100.00
10202;BME280;5143;42.584;23.164;2023-04-25T01:16:02;91751.66;;;9.21;100.00
10202;BME280;5143;42.584;23.164;2023-04-25T01:18:29;91756.88;;;9.19;100.00
10202;BME280;5143;42.584;23.164;2023-04-25T01:21:02;91759.59;;;9.24;100.00
10202;BME280;5143;42.584;23.164;2023-04-25T01:23:29;91751.19;;;9.17;100.00
10202;BME280;5143;42.584;23.164;2023-04-25T01:25:56;91761.09;;;9.20;100.00
10202;BME280;5143;42.584;23.164;2023-04-25T01:28:22;91761.78;;;9.15;100.00
10202;BME280;5143;42.584;23.164;2023-04-25T01:30:50;91757.59;;;9.14;100.00
10202;BME280;5143;42.584;23.164;2023-04-25T01:33:19;91751.66;;;9.21;100.00
10202;BME280;5143;42.584;23.164;2023-04-25T01:35:47;91746.97;;;9.27;100.00
10202;BME280;5143;42.584;23.164;2023-04-25T01:38:16;91749.69;;;9.27;100.00
10202;BME280;5143;42.584;23.164;2023-04-25T01:40:45;91748.19;;;9.26;100.00
10202;BME280;5143;42.584;23.164;2023-04-25T01:43:12;91742.50;;;9.24;100.00
10202;BME280;5143;42.584;23.164;2023-04-25T01:45:40;91750.94;;;9.31;100.00
10202;BME280;5143;42.584;23.164;2023-04-25T01:48:07;91750.69;;;9.35;100.00
10202;BME280;5143;42.584;23.164;2023-04-25T01:50:33;91751.94;;;9.45;100.00
10202;BME280;5143;42.584;23.164;2023-04-25T01:53:00;91747.97;;;9.46;100.00
10202;BME280;5143;42.584;23.164;2023-04-25T01:55:29;91742.53;;;9.52;100.00
10202;BME280;5143;42.584;23.164;2023-04-25T01:57:56;91749.94;;;9.51;100.00
10202;BME280;5143;42.584;23.164;2023-04-25T02:00:23;91737.81;;;9.52;100.00
10202;BME280;5143;42.584;23.164;2023-04-25T02:02:50;91750.69;;;9.57;100.00
10202;BME280;5143;42.584;23.164;2023-04-25T02:05:19;91735.34;;;9.54;100.00
10202;BME280;5143;42.584;23.164;2023-04-25T02:07:46;91736.09;;;9.49;100.00
10202;BME280;5143;42.584;23.164;2023-04-25T02:10:13;91728.16;;;9.45;100.00
10202;BME280;5143;42.584;23.164;2023-04-25T02:12:41;91726.19;;;9.40;100.00
10202;BME280;5143;42.584;23.164;2023-04-25T02:15:09;91734.13;;;9.38;100.00
10202;BME280;5143;42.584;23.164;2023-04-25T02:17:36;91736.31;;;9.40;100.00
10202;BME280;5143;42.584;23.164;2023-04-25T02:20:03;91733.88;;;9.36;100.00
10202;BME280;5143;42.584;23.164;2023-04-25T02:22:30;91730.13;;;9.34;100.00
10202;BME280;5143;42.584;23.164;2023-04-25T02:24:59;91732.38;;;9.30;100.00
10202;BME280;5143;42.584;23.164;2023-04-25T02:27:26;91729.13;;;9.26;100.00
10202;BME280;5143;42.584;23.164;2023-04-25T02:29:54;91723.22;;;9.22;100.00
10202;BME280;5143;42.584;23.164;2023-04-25T02:32:20;91737.81;;;9.30;100.00
10202;BME280;5143;42.584;23.164;2023-04-25T02:34:47;91734.84;;;9.28;100.00
10202;BME280;5143;42.584;23.164;2023-04-25T02:37:14;91727.69;;;9.36;100.00
10202;BME280;5143;42.584;23.164;2023-04-25T02:39:41;91730.41;;;9.36;100.00
10202;BME280;5143;42.584;23.164;2023-04-25T02:42:08;91720.97;;;9.37;100.00
10202;BME280;5143;42.584;23.164;2023-04-25T02:44:34;91724.22;;;9.41;100.00
10202;BME280;5143;42.584;23.164;2023-04-25T02:47:02;91723.97;;;9.44;100.00
10202;BME280;5143;42.584;23.164;2023-04-25T02:49:29;91717.53;;;9.42;100.00
10202;BME280;5143;42.584;23.164;2023-04-25T02:51:56;91729.16;;;9.48;100.00
10202;BME280;5143;42.584;23.164;2023-04-25T02:54:23;91729.16;;;9.54;100.00
10202;BME280;5143;42.584;23.164;2023-04-25T02:56:49;91723.47;;;9.63;100.00
10202;BME280;5143;42.584;23.164;2023-04-25T02:59:16;91703.66;;;9.51;100.00
10202;BME280;5143;42.584;23.164;2023-04-25T03:01:43;91719.50;;;9.69;100.00
10202;BME280;5143;42.584;23.164;2023-04-25T03:04:11;91721.94;;;9.73;100.00
10202;BME280;5143;42.584;23.164;2023-04-25T03:06:37;91723.19;;;9.77;100.00
10202;BME280;5143;42.584;23.164;2023-04-25T03:09:04;91729.41;;;9.78;100.00
10202;BME280;5143;42.584;23.164;2023-04-25T03:11:31;91725.19;;;9.77;100.00
10202;BME280;5143;42.584;23.164;2023-04-25T03:13:58;91726.41;;;9.81;100.00
10202;BME280;5143;42.584;23.164;2023-04-25T03:16:25;91738.56;;;9.80;100.00
10202;BME280;5143;42.584;23.164;2023-04-25T03:18:51;91729.13;;;9.81;100.00
10202;BME280;5143;42.584;23.164;2023-04-25T03:21:19;91730.63;;;9.88;100.00
10202;BME280;5143;42.584;23.164;2023-04-25T03:23:46;91724.94;;;9.80;100.00
10202;BME280;5143;42.584;23.164;2023-04-25T03:26:13;91729.38;;;9.83;100.00
10202;BME280;5143;42.584;23.164;2023-04-25T03:28:39;91730.63;;;9.77;100.00
10202;BME280;5143;42.584;23.164;2023-04-25T03:31:06;91727.16;;;9.82;100.00
10202;BME280;5143;42.584;23.164;2023-04-25T03:33:33;91721.47;;;9.74;100.00
10202;BME280;5143;42.584;23.164;2023-04-25T03:35:59;91721.22;;;9.72;100.00
10202;BME280;5143;42.584;23.164;2023-04-25T03:38:28;91729.88;;;9.76;100.00
10202;BME280;5143;42.584;23.164;2023-04-25T03:40:54;91730.41;;;9.69;100.00
10202;BME280;5143;42.584;23.164;2023-04-25T03:43:21;91717.75;;;9.72;100.00
10202;BME280;5143;42.584;23.164;2023-04-25T03:45:48;91714.53;;;9.73;100.00
10202;BME280;5143;42.584;23.164;2023-04-25T03:48:15;91714.78;;;9.70;100.00
10202;BME280;5143;42.584;23.164;2023-04-25T03:50:41;91713.06;;;9.67;100.00
10202;BME280;5143;42.584;23.164;2023-04-25T03:53:08;91705.59;;;9.67;100.00
10202;BME280;5143;42.584;23.164;2023-04-25T03:55:36;91718.50;;;9.72;100.00
10202;BME280;5143;42.584;23.164;2023-04-25T03:58:03;91725.94;;;9.66;100.00
10202;BME280;5143;42.584;23.164;2023-04-25T04:00:30;91724.44;;;9.76;100.00
10202;BME280;5143;42.584;23.164;2023-04-25T04:02:57;91729.38;;;9.83;100.00
10202;BME280;5143;42.584;23.164;2023-04-25T04:05:23;91729.63;;;9.91;100.00
10202;BME280;5143;42.584;23.164;2023-04-25T04:07:50;91728.88;;;9.90;100.00
10202;BME280;5143;42.584;23.164;2023-04-25T04:10:17;91732.84;;;9.89;100.00
10202;BME280;5143;42.584;23.164;2023-04-25T04:12:45;91730.09;;;9.89;100.00
10202;BME280;5143;42.584;23.164;2023-04-25T04:15:12;91729.34;;;9.94;100.00
10202;BME280;5143;42.584;23.164;2023-04-25T04:17:38;91733.81;;;9.92;100.00
10202;BME280;5143;42.584;23.164;2023-04-25T04:20:06;91724.94;;;9.86;100.00
10202;BME280;5143;42.584;23.164;2023-04-25T04:22:34;91730.88;;;9.84;100.00
10202;BME280;5143;42.584;23.164;2023-04-25T04:25:01;91727.16;;;9.82;100.00
10202;BME280;5143;42.584;23.164;2023-04-25T04:27:30;91731.09;;;9.86;100.00
10202;BME280;5143;42.584;23.164;2023-04-25T04:29:58;91726.63;;;9.83;100.00
10202;BME280;5143;42.584;23.164;2023-04-25T04:32:24;91731.38;;;9.88;100.00
10202;BME280;5143;42.584;23.164;2023-04-25T04:34:53;91728.88;;;9.85;100.00
10202;BME280;5143;42.584;23.164;2023-04-25T04:37:20;91727.16;;;9.87;100.00
10202;BME280;5143;42.584;23.164;2023-04-25T04:39:47;91730.09;;;9.89;100.00
10202;BME280;5143;42.584;23.164;2023-04-25T04:42:14;91733.09;;;9.97;100.00
10202;BME280;5143;42.584;23.164;2023-04-25T04:44:40;91719.94;;;9.95;100.00
10202;BME280;5143;42.584;23.164;2023-04-25T04:47:11;91736.06;;;9.93;100.00
10202;BME280;5143;42.584;23.164;2023-04-25T04:49:38;91738.03;;;9.93;100.00
10202;BME280;5143;42.584;23.164;2023-04-25T04:52:05;91737.53;;;9.94;100.00
10202;BME280;5143;42.584;23.164;2023-04-25T04:54:31;91738.28;;;9.89;100.00
10202;BME280;5143;42.584;23.164;2023-04-25T04:57:00;91729.63;;;9.91;100.00
10202;BME280;5143;42.584;23.164;2023-04-25T04:59:27;91736.06;;;9.99;100.00
10202;BME280;5143;42.584;23.164;2023-04-25T05:01:54;91731.09;;;9.97;100.00
10202;BME280;5143;42.584;23.164;2023-04-25T05:04:22;91736.06;;;9.99;100.00
10202;BME280;5143;42.584;23.164;2023-04-25T05:06:48;91740.03;;;9.92;100.00
10202;BME280;5143;42.584;23.164;2023-04-25T05:09:15;91728.13;;;9.95;100.00
10202;BME280;5143;42.584;23.164;2023-04-25T05:11:44;91742.50;;;10.01;100.00
10202;BME280;5143;42.584;23.164;2023-04-25T05:14:11;91721.16;;;9.94;100.00
10202;BME280;5143;42.584;23.164;2023-04-25T05:16:37;91735.03;;;10.07;100.00
10202;BME280;5143;42.584;23.164;2023-04-25T05:19:04;91732.56;;;10.09;100.00
10202;BME280;5143;42.584;23.164;2023-04-25T05:21:32;91742.94;;;10.28;100.00
10202;BME280;5143;42.584;23.164;2023-04-25T05:23:59;91738.44;;;10.41;100.00
10202;BME280;5143;42.584;23.164;2023-04-25T05:26:26;91727.47;;;10.52;100.00
10202;BME280;5143;42.584;23.164;2023-04-25T05:28:56;91741.38;;;10.54;100.00
10202;BME280;5143;42.584;23.164;2023-04-25T05:31:23;91743.56;;;10.67;100.00
10202;BME280;5143;42.584;23.164;2023-04-25T05:33:49;91744.94;;;10.90;100.00
10202;BME280;5143;42.584;23.164;2023-04-25T05:36:16;91744.59;;;11.05;100.00
10202;BME280;5143;42.584;23.164;2023-04-25T05:38:44;91734.97;;;10.98;100.00
10202;BME280;5143;42.584;23.164;2023-04-25T05:41:11;91756.50;;;11.07;100.00
10202;BME280;5143;42.584;23.164;2023-04-25T05:43:38;91759.06;;;10.94;100.00
10202;BME280;5143;42.584;23.164;2023-04-25T05:46:04;91747.16;;;10.92;100.00
10202;BME280;5143;42.584;23.164;2023-04-25T05:48:31;91749.31;;;11.04;100.00
10202;BME280;5143;42.584;23.164;2023-04-25T05:50:58;91752.50;;;11.14;100.00
10202;BME280;5143;42.584;23.164;2023-04-25T05:53:24;91756.22;;;11.16;100.00
10202;BME280;5143;42.584;23.164;2023-04-25T05:55:53;91748.03;;;11.16;100.00
10202;BME280;5143;42.584;23.164;2023-04-25T05:58:19;91757.16;;;11.24;100.00
10202;BME280;5143;42.584;23.164;2023-04-25T06:00:46;91760.03;;;11.38;100.00
10202;BME280;5143;42.584;23.164;2023-04-25T06:03:13;91758.31;;;11.35;100.00
10202;BME280;5143;42.584;23.164;2023-04-25T06:05:41;91767.97;;;11.41;100.00
10202;BME280;5143;42.584;23.164;2023-04-25T06:08:08;91767.78;;;11.34;100.00
10202;BME280;5143;42.584;23.164;2023-04-25T06:10:35;91760.97;;;11.46;100.00
10202;BME280;5143;42.584;23.164;2023-04-25T06:13:04;91759.91;;;11.60;100.00
10202;BME280;5143;42.584;23.164;2023-04-25T06:15:31;91763.97;;;11.48;100.00
10202;BME280;5143;42.584;23.164;2023-04-25T06:17:58;91755.53;;;11.46;100.00
10202;BME280;5143;42.584;23.164;2023-04-25T06:20:25;91756.78;;;11.45;100.00
10202;BME280;5143;42.584;23.164;2023-04-25T06:22:52;91764.28;;;11.39;100.00
10202;BME280;5143;42.584;23.164;2023-04-25T06:25:19;91766.44;;;11.46;100.00
10202;BME280;5143;42.584;23.164;2023-04-25T06:27:45;91767.88;;;11.58;100.00
10202;BME280;5143;42.584;23.164;2023-04-25T06:30:14;91769.75;;;11.74;100.00
10202;BME280;5143;42.584;23.164;2023-04-25T06:32:43;91777.69;;;12.07;100.00
10202;BME280;5143;42.584;23.164;2023-04-25T06:35:10;91780.16;;;12.11;100.00
10202;BME280;5143;42.584;23.164;2023-04-25T06:37:37;91781.63;;;12.12;100.00
10202;BME280;5143;42.584;23.164;2023-04-25T06:40:04;91780.75;;;11.98;100.00
10202;BME280;5143;42.584;23.164;2023-04-25T06:42:31;91786.03;;;11.91;100.00
10202;BME280;5143;42.584;23.164;2023-04-25T06:44:58;91787.22;;;11.95;100.00
10202;BME280;5143;42.584;23.164;2023-04-25T06:47:26;91767.03;;;11.68;100.00
10202;BME280;5143;42.584;23.164;2023-04-25T06:49:53;91782.97;;;11.70;100.00
10202;BME280;5143;42.584;23.164;2023-04-25T06:52:20;91778.19;;;11.76;100.00
10202;BME280;5143;42.584;23.164;2023-04-25T06:54:46;91785.59;;;11.87;100.00
10202;BME280;5143;42.584;23.164;2023-04-25T06:57:13;91783.56;;;11.87;100.00
10202;BME280;5143;42.584;23.164;2023-04-25T06:59:40;91794.75;;;11.89;100.00
10202;BME280;5143;42.584;23.164;2023-04-25T07:02:06;91793.13;;;12.05;100.00
10202;BME280;5143;42.584;23.164;2023-04-25T07:04:35;91795.66;;;12.03;100.00
10202;BME280;5143;42.584;23.164;2023-04-25T07:07:01;91792.25;;;12.21;100.00
10202;BME280;5143;42.584;23.164;2023-04-25T07:09:29;91794.66;;;12.30;100.00
10202;BME280;5143;42.584;23.164;2023-04-25T07:11:59;91791.72;;;12.22;100.00
10202;BME280;5143;42.584;23.164;2023-04-25T07:14:26;91796.16;;;12.25;100.00
10202;BME280;5143;42.584;23.164;2023-04-25T07:16:53;91789.06;;;12.65;100.00
10202;BME280;5143;42.584;23.164;2023-04-25T07:19:21;91796.56;;;13.08;100.00
10202;BME280;5143;42.584;23.164;2023-04-25T07:21:50;91791.00;;;13.13;100.00
10202;BME280;5143;42.584;23.164;2023-04-25T07:24:17;91791.00;;;13.13;100.00
10202;BME280;5143;42.584;23.164;2023-04-25T07:26:43;91790.66;;;13.22;100.00
10202;BME280;5143;42.584;23.164;2023-04-25T07:29:10;91785.31;;;13.11;100.00
10202;BME280;5143;42.584;23.164;2023-04-25T07:31:37;91791.19;;;13.21;100.00
10202;BME280;5143;42.584;23.164;2023-04-25T07:34:04;91787.91;;;12.79;100.00
10202;BME280;5143;42.584;23.164;2023-04-25T07:36:31;91781.09;;;12.86;100.00
10202;BME280;5143;42.584;23.164;2023-04-25T07:38:59;91777.84;;;13.12;100.00
10202;BME280;5143;42.584;23.164;2023-04-25T07:41:26;91790.50;;;13.15;100.00
10202;BME280;5143;42.584;23.164;2023-04-25T07:43:52;91792.06;;;13.29;100.00
10202;BME280;5143;42.584;23.164;2023-04-25T07:46:19;91785.25;;;14.49;100.00
10202;BME280;5143;42.584;23.164;2023-04-25T07:48:46;91806.84;;;16.05;100.00
10202;BME280;5143;42.584;23.164;2023-04-25T07:51:12;91816.47;;;16.73;100.00
10202;BME280;5143;42.584;23.164;2023-04-25T07:53:39;91811.47;;;17.56;100.00
10202;BME280;5143;42.584;23.164;2023-04-25T07:56:07;91815.28;;;17.89;96.80
10202;BME280;5143;42.584;23.164;2023-04-25T07:58:34;91803.50;;;17.45;93.95
10202;BME280;5143;42.584;23.164;2023-04-25T08:01:01;91811.75;;;17.09;99.95
10202;BME280;5143;42.584;23.164;2023-04-25T08:03:27;91816.84;;;18.28;90.25
10202;BME280;5143;42.584;23.164;2023-04-25T08:05:54;91810.81;;;19.13;76.52
10202;BME280;5143;42.584;23.164;2023-04-25T08:08:21;91800.44;;;18.22;82.66
10202;BME280;5143;42.584;23.164;2023-04-25T08:10:48;91790.41;;;17.38;79.10
10202;BME280;5143;42.584;23.164;2023-04-25T08:13:16;91791.31;;;16.77;90.89
10202;BME280;5143;42.584;23.164;2023-04-25T08:15:43;91783.94;;;16.10;100.00
10202;BME280;5143;42.584;23.164;2023-04-25T08:18:09;91789.41;;;15.68;100.00
10202;BME280;5143;42.584;23.164;2023-04-25T08:20:36;91784.06;;;15.36;100.00
10202;BME280;5143;42.584;23.164;2023-04-25T08:23:03;91789.66;;;15.31;100.00
10202;BME280;5143;42.584;23.164;2023-04-25T08:25:30;91789.50;;;14.90;100.00
10202;BME280;5143;42.584;23.164;2023-04-25T08:27:57;91791.50;;;14.76;100.00
10202;BME280;5143;42.584;23.164;2023-04-25T08:30:26;91787.59;;;14.85;100.00
10202;BME280;5143;42.584;23.164;2023-04-25T08:32:53;91783.97;;;15.03;100.00
10202;BME280;5143;42.584;23.164;2023-04-25T08:35:20;91785.22;;;15.54;100.00
10202;BME280;5143;42.584;23.164;2023-04-25T08:37:47;91787.97;;;16.09;100.00
10202;BME280;5143;42.584;23.164;2023-04-25T08:40:15;91781.94;;;16.31;100.00
10202;BME280;5143;42.584;23.164;2023-04-25T08:42:42;91781.44;;;16.53;100.00
10202;BME280;5143;42.584;23.164;2023-04-25T08:45:10;91771.91;;;16.41;100.00
10202;BME280;5143;42.584;23.164;2023-04-25T08:47:38;91752.25;;;16.37;99.54
10202;BME280;5143;42.584;23.164;2023-04-25T08:50:07;91778.66;;;16.53;100.00
10202;BME280;5143;42.584;23.164;2023-04-25T08:52:36;91779.31;;;16.67;84.80
10202;BME280;5143;42.584;23.164;2023-04-25T08:55:05;91774.00;;;16.48;80.65
10202;BME280;5143;42.584;23.164;2023-04-25T08:57:34;91769.31;;;16.56;79.30
10202;BME280;5143;42.584;23.164;2023-04-25T09:00:01;91777.50;;;16.97;72.56
10202;BME280;5143;42.584;23.164;2023-04-25T09:02:28;91772.69;;;17.26;77.04
10202;BME280;5143;42.584;23.164;2023-04-25T09:04:57;91779.91;;;17.37;75.05
10202;BME280;5143;42.584;23.164;2023-04-25T09:07:24;91776.16;;;16.91;71.67
10202;BME280;5143;42.584;23.164;2023-04-25T09:09:51;91777.03;;;17.14;72.21
10202;BME280;5143;42.584;23.164;2023-04-25T09:12:18;91772.47;;;17.17;69.73
10202;BME280;5143;42.584;23.164;2023-04-25T09:15:01;91761.16;;;16.71;73.74
10202;BME280;5143;42.584;23.164;2023-04-25T09:17:29;91773.59;;;16.65;69.79
10202;BME280;5143;42.584;23.164;2023-04-25T09:20:05;91765.69;;;16.61;70.91
10202;BME280;5143;42.584;23.164;2023-04-25T09:22:32;91770.69;;;16.70;70.09
10202;BME280;5143;42.584;23.164;2023-04-25T09:25:02;91761.50;;;16.96;66.73
10202;BME280;5143;42.584;23.164;2023-04-25T09:27:29;91764.03;;;17.22;66.40
10202;BME280;5143;42.584;23.164;2023-04-25T09:29:57;91760.00;;;16.95;60.46
10202;BME280;5143;42.584;23.164;2023-04-25T09:32:25;91745.91;;;16.49;60.05
10202;BME280;5143;42.584;23.164;2023-04-25T09:34:53;91757.97;;;16.18;62.32
10202;BME280;5143;42.584;23.164;2023-04-25T09:37:22;91763.59;;;16.33;65.92
10202;BME280;5143;42.584;23.164;2023-04-25T09:39:50;91765.81;;;16.35;68.10
10202;BME280;5143;42.584;23.164;2023-04-25T09:42:17;91771.25;;;16.27;76.96
10202;BME280;5143;42.584;23.164;2023-04-25T09:44:44;91757.00;;;15.74;71.56
10202;BME280;5143;42.584;23.164;2023-04-25T09:47:12;91764.59;;;15.81;71.80
10202;BME280;5143;42.584;23.164;2023-04-25T09:49:40;91769.50;;;15.75;100.00
10202;BME280;5143;42.584;23.164;2023-04-25T09:52:14;91778.91;;;15.20;69.00
10202;BME280;5143;42.584;23.164;2023-04-25T09:54:42;91773.13;;;15.44;90.41
10202;BME280;5143;42.584;23.164;2023-04-25T09:57:11;91778.56;;;15.83;78.15
10202;BME280;5143;42.584;23.164;2023-04-25T09:59:39;91778.31;;;16.15;76.48
10202;BME280;5143;42.584;23.164;2023-04-25T10:02:09;91773.66;;;16.10;68.82
10202;BME280;5143;42.584;23.164;2023-04-25T10:04:37;91777.84;;;16.24;68.60
10202;BME280;5143;42.584;23.164;2023-04-25T10:07:05;91772.06;;;16.35;65.68
10202;BME280;5143;42.584;23.164;2023-04-25T10:09:33;91779.47;;;16.20;63.62
10202;BME280;5143;42.584;23.164;2023-04-25T10:12:06;91767.50;;;16.38;62.83
10202;BME280;5143;42.584;23.164;2023-04-25T10:14:33;91768.09;;;16.44;63.24
10202;BME280;5143;42.584;23.164;2023-04-25T10:17:01;91764.34;;;16.55;64.22
10202;BME280;5143;42.584;23.164;2023-04-25T10:19:28;91767.88;;;16.63;65.21
10202;BME280;5143;42.584;23.164;2023-04-25T10:22:03;91772.72;;;16.70;60.07
10202;BME280;5143;42.584;23.164;2023-04-25T10:24:31;91765.94;;;16.50;61.25
10202;BME280;5143;42.584;23.164;2023-04-25T10:26:58;91759.56;;;16.55;61.82
10202;BME280;5143;42.584;23.164;2023-04-25T10:29:26;91764.47;;;16.49;63.17
10202;BME280;5143;42.584;23.164;2023-04-25T10:31:53;91761.84;;;16.43;60.91
10202;BME280;5143;42.584;23.164;2023-04-25T10:34:24;91769.03;;;15.84;64.42
10202;BME280;5143;42.584;23.164;2023-04-25T10:36:52;91772.25;;;14.89;72.31
10202;BME280;5143;42.584;23.164;2023-04-25T10:39:23;91760.94;;;14.40;94.43
10202;BME280;5143;42.584;23.164;2023-04-25T10:41:56;91770.56;;;14.15;100.00
10202;BME280;5143;42.584;23.164;2023-04-25T10:44:27;91764.75;;;14.05;100.00
10202;BME280;5143;42.584;23.164;2023-04-25T10:46:55;91749.94;;;13.64;100.00
10202;BME280;5143;42.584;23.164;2023-04-25T10:49:31;91743.91;;;13.84;100.00
10202;BME280;5143;42.584;23.164;2023-04-25T10:52:17;91740.81;;;13.74;100.00
10202;BME280;5143;42.584;23.164;2023-04-25T10:54:48;91732.25;;;13.65;100.00
10202;BME280;5143;42.584;23.164;2023-04-25T10:57:32;91721.78;;;13.95;100.00
10202;BME280;5143;42.584;23.164;2023-04-25T11:00:06;91714.88;;;14.20;100.00
10202;BME280;5143;42.584;23.164;2023-04-25T11:02:37;91705.72;;;14.44;100.00
10202;BME280;5143;42.584;23.164;2023-04-25T11:05:04;91704.34;;;14.63;100.00
10202;BME280;5143;42.584;23.164;2023-04-25T11:07:38;91705.34;;;15.00;100.00
10202;BME280;5143;42.584;23.164;2023-04-25T11:10:06;91698.16;;;15.10;100.00
10202;BME280;5143;42.584;23.164;2023-04-25T11:12:33;91681.00;;;15.17;100.00
10202;BME280;5143;42.584;23.164;2023-04-25T11:15:03;91675.66;;;15.66;100.00
10202;BME280;5143;42.584;23.164;2023-04-25T11:17:30;91693.31;;;15.70;77.10
10202;BME280;5143;42.584;23.164;2023-04-25T11:19:57;91700.59;;;15.47;71.48
10202;BME280;5143;42.584;23.164;2023-04-25T11:22:24;91712.97;;;15.41;66.82
10202;BME280;5143;42.584;23.164;2023-04-25T11:24:50;91719.44;;;15.30;69.23
10202;BME280;5143;42.584;23.164;2023-04-25T11:27:17;91716.09;;;15.24;72.11
10202;BME280;5143;42.584;23.164;2023-04-25T11:29:44;91725.22;;;14.93;72.12
10202;BME280;5143;42.584;23.164;2023-04-25T11:32:15;91734.78;;;14.52;72.81
10202;BME280;5143;42.584;23.164;2023-04-25T11:34:43;91758.03;;;14.19;100.00
10202;BME280;5143;42.584;23.164;2023-04-25T11:37:10;91760.41;;;12.90;100.00
10202;BME280;5143;42.584;23.164;2023-04-25T11:39:38;91775.28;;;11.98;100.00
10202;BME280;5143;42.584;23.164;2023-04-25T11:42:04;91756.97;;;11.88;100.00
10202;BME280;5143;42.584;23.164;2023-04-25T11:44:32;91745.69;;;11.72;100.00
10202;BME280;5143;42.584;23.164;2023-04-25T11:46:58;91733.69;;;11.81;100.00
10202;BME280;5143;42.584;23.164;2023-04-25T11:49:30;91732.78;;;11.97;100.00
10202;BME280;5143;42.584;23.164;2023-04-25T11:51:56;91719.16;;;12.16;100.00
10202;BME280;5143;42.584;23.164;2023-04-25T11:54:23;91716.03;;;12.30;100.00
10202;BME280;5143;42.584;23.164;2023-04-25T11:56:50;91713.66;;;12.83;100.00
10202;BME280;5143;42.584;23.164;2023-04-25T11:59:23;91721.09;;;13.07;100.00
10202;BME280;5143;42.584;23.164;2023-04-25T12:01:50;91718.94;;;13.37;100.00
10202;BME280;5143;42.584;23.164;2023-04-25T12:04:18;91732.78;;;14.08;100.00
10202;BME280;5143;42.584;23.164;2023-04-25T12:06:48;91727.09;;;14.19;100.00
10202;BME280;5143;42.584;23.164;2023-04-25T12:09:18;91735.09;;;14.04;100.00
10202;BME280;5143;42.584;23.164;2023-04-25T12:11:48;91713.38;;;14.06;100.00
10202;BME280;5143;42.584;23.164;2023-04-25T12:14:21;91713.78;;;14.10;100.00
10202;BME280;5143;42.584;23.164;2023-04-25T12:16:48;91719.31;;;13.78;100.00
10202;BME280;5143;42.584;23.164;2023-04-25T12:19:17;91714.88;;;13.75;100.00
10202;BME280;5143;42.584;23.164;2023-04-25T12:21:44;91725.38;;;13.90;100.00
10202;BME280;5143;42.584;23.164;2023-04-25T12:24:14;91720.47;;;14.14;100.00
10202;BME280;5143;42.584;23.164;2023-04-25T12:26:51;91716.53;;;14.10;100.00
10202;BME280;5143;42.584;23.164;2023-04-25T12:29:23;91718.00;;;14.11;100.00
10202;BME280;5143;42.584;23.164;2023-04-25T12:31:51;91719.25;;;14.42;100.00
10202;BME280;5143;42.584;23.164;2023-04-25T12:34:19;91723.56;;;14.63;100.00
10202;BME280;5143;42.584;23.164;2023-04-25T12:36:46;91719.63;;;14.98;100.00
10202;BME280;5143;42.584;23.164;2023-04-25T12:39:18;91717.44;;;15.30;100.00
10202;BME280;5143;42.584;23.164;2023-04-25T12:41:45;91728.53;;;15.38;100.00
10202;BME280;5143;42.584;23.164;2023-04-25T12:44:12;91711.63;;;15.68;100.00
10202;BME280;5143;42.584;23.164;2023-04-25T12:46:40;91720.34;;;15.79;100.00
10202;BME280;5143;42.584;23.164;2023-04-25T12:49:07;91717.44;;;16.26;88.75
10202;BME280;5143;42.584;23.164;2023-04-25T12:51:34;91711.28;;;16.13;78.91
10202;BME280;5143;42.584;23.164;2023-04-25T12:54:02;91707.00;;;16.25;82.51
10202;BME280;5143;42.584;23.164;2023-04-25T12:56:31;91707.50;;;16.44;78.96
10202;BME280;5143;42.584;23.164;2023-04-25T12:58:57;91706.47;;;16.55;88.46